Salinas, CA

5:50 PM PST on December 17, 2014 (GMT -0800)
University Park | Change Station
CLOSE
Current Station
Personal Weather Station
Location: Salinas, CA
Elevation: 52 ft
Nearby Weather Stations

Elev 52 ft 36.67 °N, 121.68 °W | Updated 7 minutes ago

Scattered Clouds
Scattered Clouds
54.3 °F
Feels Like 54.3 °F
N
1.7
Wind Variable Wind from South

Today
High -- | Low -- °F
--% Chance of Precip.
Yesterday
High -- | Low -- °F
Precip. -- in
7:13 AM 4:52 PM
Waning Crescent, 18% visible
Pressure 30.09 in
Visibility 10.0 miles
Clouds Few 4600 ft
Scattered Clouds 10000 ft
Dew Point 50 °F
Humidity 86%
Rainfall 0.02 in
Snow Depth Not available.
UV 0 out of 12
Pollen 1.30 out of 12
Air Quality Not available.
Flu Activity Not available.
METAR KSNS 180053Z AUTO 12005KT 10SM FEW046 SCT100 14/09 A3006 RMK AO2 SLP188 T01390094 TSNO

More Conditions Fewer Conditions

Pressure 30.09 in
Visibility 10.0 miles
Clouds Few 4600 ft
Scattered Clouds 10000 ft
Dew Point 50 °F
Humidity 86%
Rainfall 0.02 in
Snow Depth Not available.
UV 0 out of 12
Pollen 1.30 out of 12
Air Quality Not available.
Flu Activity Not available.
METAR KSNS 180053Z AUTO 12005KT 10SM FEW046 SCT100 14/09 A3006 RMK AO2 SLP188 T01390094 TSNO

More Conditions Fewer Conditions

10-Day Weather Forecast

Almanac

Astronomy

Dec. 17, 2014 Rise Set
Actual Time
Civil Twilight
Nautical Twilight
Astronomical Twilight
Moon
Length of Visible Light
Length of Day
Tomorrow will be .
, % of the Moon is Illuminated

Today's Extremes

State Highs State Lows

Community

WunderPhotos

Upload Photos

1,778,846 photos uploaded!

WunderBlogs® & News

Nearby

Air Quality

  Air Quality AQ Index Pollutant
Not available.

Snow Depth

Station Depth Elevation

Earthquake Activity

City Distance Mag. Time & Date
Minimum magnitude displayed is 2.5.

Coastal Water Temperatures

Place Temperature

Nearby Weather Stations